Terminal Aerodrome Forecast
Issued by NWS Boston, MA

Home | Current Version | Previous Version | Text Only | Print | Product List | Glossary On
Versions: 1 2 3 4 5 6 7 8 9 10 11 12 13 14 15 16 17 18 19 20 21 22
000
FTUS41 KBOX 192108 AAA
TAFBDL
TAF AMD
KBDL 192108Z 1921/2024 35014G23KT P6SM FEW060 SCT250
     FM192300 35010KT P6SM SKC
     FM200400 36006KT P6SM SKC
     FM201600 07004KT P6SM SKC
     FM201800 14004KT P6SM SKC=

USA.gov is the U.S. government's official web portal to all federal, state and local government web resources and services.